KAHN/AHN METAR and TAF weather

Enter ICAO airport designator
Station Type Date Time Source
KAHN METAR 2019/10/15 07:51 UTC NOAA

KAHN 150751Z AUTO 00000KT 10SM OVC050 16/12 A3011 RMK AO2 SLP190 T01610117


Station Type Date Time Source
KAHN Decoded METAR 2019/10/15 07:51 UTC NOAA

ATHENS BEN EPPS AIRPORT, GA, United States (KAHN) 33-57N 083-20W 244M
Oct 15, 2019 - 03:51 AM EDT / 2019.10.15 0751 UTC
Wind: Calm:0
Visibility: 10 mile(s):0
Sky conditions: overcast
Temperature: 61.0 F (16.1 C)
Dew Point: 53.1 F (11.7 C)
Relative Humidity: 75%
Pressure (altimeter): 30.11 in. Hg (1019 hPa)
ob: KAHN 150751Z AUTO 00000KT 10SM OVC050 16/12 A3011 RMK AO2 SLP190 T01610117
cycle: 8

Station Type Date Time Source
KAHN TAF 2019/10/15 06:52 UTC NOAA

TAF KAHN 150549Z 1506/1606 00000KT P6SM SCT080 OVC250
FM151400 09003KT P6SM VCSH OVC060
FM151900 11004KT P6SM -SHRA OVC040
FM152100 09004KT P6SM -SHRA OVC025
FM160000 10004KT 6SM -SHRA BR OVC009

Example: see airport list